createdAt,value
2023-05-08T00:02:10.169Z,0.67
2023-05-08T00:04:38.072Z,0.64
2023-05-08T00:07:05.894Z,0.62
2023-05-08T00:09:33.672Z,0.60
2023-05-08T00:12:01.467Z,0.57
2023-05-08T00:14:29.226Z,0.55
2023-05-08T00:16:57.197Z,0.53
2023-05-08T00:19:25.027Z,0.51
2023-05-08T00:21:52.874Z,0.49
2023-05-08T00:24:20.689Z,0.47
2023-05-08T00:26:48.491Z,0.44
2023-05-08T00:29:16.221Z,0.44
2023-05-08T00:31:44.173Z,0.42
2023-05-08T00:34:12.082Z,0.41
2023-05-08T00:36:39.926Z,0.38
2023-05-08T00:39:08.089Z,0.36
2023-05-08T00:41:35.924Z,0.31
2023-05-08T00:44:03.749Z,0.28
2023-05-08T00:46:32.467Z,0.28
2023-05-08T00:49:00.880Z,0.27
2023-05-08T00:51:29.428Z,0.25
2023-05-08T00:53:57.765Z,0.23
2023-05-08T00:56:26.912Z,0.18
2023-05-08T00:58:55.285Z,0.17
2023-05-08T01:01:23.775Z,0.13
2023-05-08T01:03:51.882Z,0.09
2023-05-08T01:06:19.762Z,0.09
2023-05-08T01:08:47.483Z,0.07
2023-05-08T01:11:28.203Z,0.06
2023-05-08T01:14:02.784Z,0.05
2023-05-08T01:17:06.939Z,0.05
2023-05-08T01:19:57.639Z,0.01
2023-05-08T01:23:02.795Z,-0.00
2023-05-08T01:26:08.934Z,0.00
2023-05-08T01:28:58.760Z,-0.04
2023-05-08T01:31:48.030Z,-0.04
2023-05-08T01:34:23.748Z,-0.04
2023-05-08T01:37:11.081Z,-0.04
2023-05-08T01:39:48.122Z,-0.05
2023-05-08T01:42:39.157Z,-0.06
2023-05-08T01:45:31.139Z,-0.07
2023-05-08T01:48:11.303Z,-0.06
2023-05-08T01:50:54.030Z,-0.07
2023-05-08T01:53:25.897Z,-0.07
2023-05-08T01:55:58.005Z,-0.08
2023-05-08T01:58:28.266Z,-0.09
2023-05-08T02:00:57.562Z,-0.09
2023-05-08T02:03:26.362Z,-0.09
2023-05-08T02:05:58.839Z,-0.10
2023-05-08T02:08:28.973Z,-0.11
2023-05-08T02:10:58.969Z,-0.12
2023-05-08T02:13:28.772Z,-0.12
2023-05-08T02:15:58.187Z,-0.12
2023-05-08T02:18:28.529Z,-0.15
2023-05-08T02:20:57.378Z,-0.14
2023-05-08T02:23:26.843Z,-0.16
2023-05-08T02:25:55.990Z,-0.17
2023-05-08T02:28:25.134Z,-0.18
2023-05-08T02:30:53.751Z,-0.18
2023-05-08T02:33:22.065Z,-0.19
2023-05-08T02:35:52.282Z,-0.19
2023-05-08T02:38:21.634Z,-0.19
2023-05-08T02:41:00.968Z,-0.20
2023-05-08T02:43:29.266Z,-0.20
2023-05-08T02:45:57.169Z,-0.20
2023-05-08T02:48:31.225Z,-0.20
2023-05-08T02:51:21.624Z,-0.20
2023-05-08T02:54:04.806Z,-0.20
2023-05-08T02:56:58.864Z,-0.22
2023-05-08T02:59:37.352Z,-0.22
2023-05-08T03:02:22.217Z,-0.22
2023-05-08T03:04:55.338Z,-0.23
2023-05-08T03:07:26.261Z,-0.25
2023-05-08T03:10:03.121Z,-0.24
2023-05-08T03:12:34.706Z,-0.23
2023-05-08T03:15:14.581Z,-0.25
2023-05-08T03:17:46.287Z,-0.24
2023-05-08T03:20:18.266Z,-0.23
2023-05-08T03:22:48.346Z,-0.21
2023-05-08T03:25:19.582Z,-0.21
2023-05-08T03:27:49.172Z,-0.18
2023-05-08T03:30:18.528Z,-0.16
2023-05-08T03:32:57.134Z,-0.15
2023-05-08T03:35:27.178Z,-0.11
2023-05-08T03:37:55.485Z,-0.07
2023-05-08T03:40:23.693Z,-0.03
2023-05-08T03:42:53.129Z,0.00
2023-05-08T03:45:21.001Z,0.06
2023-05-08T03:47:49.408Z,0.11
2023-05-08T03:50:17.660Z,0.15
2023-05-08T03:52:46.114Z,0.21
2023-05-08T03:55:14.132Z,0.25
2023-05-08T03:57:50.779Z,0.32
2023-05-08T04:00:41.816Z,0.39
2023-05-08T04:03:20.892Z,0.45
2023-05-08T04:06:16.050Z,0.54
2023-05-08T04:09:00.475Z,0.64
2023-05-08T04:11:54.660Z,0.74
2023-05-08T04:14:26.268Z,0.84
2023-05-08T04:17:00.614Z,0.96
2023-05-08T04:19:33.401Z,1.06
2023-05-08T04:22:06.709Z,1.18
2023-05-08T04:24:40.715Z,1.28
2023-05-08T04:27:10.899Z,1.41
2023-05-08T04:29:39.451Z,1.54
2023-05-08T04:32:08.494Z,1.65
2023-05-08T04:34:36.850Z,1.81
2023-05-08T04:37:08.022Z,1.98
2023-05-08T04:39:35.903Z,2.18
2023-05-08T04:42:04.917Z,2.37
2023-05-08T04:44:33.959Z,2.56
2023-05-08T04:47:01.981Z,2.74
2023-05-08T04:49:29.767Z,2.90
2023-05-08T04:51:57.801Z,3.05
2023-05-08T04:54:25.688Z,3.22
2023-05-08T04:56:53.578Z,3.41
2023-05-08T04:59:21.552Z,3.62
2023-05-08T05:01:49.508Z,3.84
2023-05-08T05:04:17.736Z,4.02
2023-05-08T05:06:45.696Z,4.19
2023-05-08T05:09:13.546Z,4.32
2023-05-08T05:11:41.909Z,4.50
2023-05-08T05:14:09.680Z,4.66
2023-05-08T05:16:38.203Z,4.82
2023-05-08T05:19:06.424Z,4.97
2023-05-08T05:21:34.763Z,5.15
2023-05-08T05:24:03.501Z,5.36
2023-05-08T05:26:31.820Z,5.54
2023-05-08T05:29:00.009Z,5.69
2023-05-08T05:31:29.130Z,5.86
2023-05-08T05:33:57.482Z,6.01
2023-05-08T05:36:26.183Z,6.14
2023-05-08T05:38:54.101Z,6.33
2023-05-08T05:41:22.578Z,6.48
2023-05-08T05:43:50.382Z,6.65
2023-05-08T05:46:18.804Z,6.83
2023-05-08T05:48:47.347Z,6.99
2023-05-08T05:51:15.734Z,7.14
2023-05-08T05:53:43.939Z,7.31
2023-05-08T05:56:11.960Z,7.46
2023-05-08T05:58:40.993Z,7.59
2023-05-08T06:01:09.747Z,7.72
2023-05-08T06:03:37.978Z,7.84
2023-05-08T06:06:06.154Z,7.95
2023-05-08T06:08:35.381Z,8.06
2023-05-08T06:11:03.877Z,8.19
2023-05-08T06:13:32.022Z,8.29
2023-05-08T06:16:00.179Z,8.40
2023-05-08T06:18:28.480Z,8.55
2023-05-08T06:21:00.151Z,8.70
2023-05-08T06:23:28.248Z,8.77
2023-05-08T06:25:56.065Z,8.87
2023-05-08T06:28:26.213Z,8.98
2023-05-08T06:30:54.383Z,9.13
2023-05-08T06:33:23.562Z,9.24
2023-05-08T06:35:52.702Z,9.40
2023-05-08T06:38:20.673Z,9.53
2023-05-08T06:40:50.169Z,9.65
2023-05-08T06:43:17.803Z,9.74
2023-05-08T06:45:47.008Z,9.82
2023-05-08T06:48:14.870Z,9.93
2023-05-08T06:50:43.393Z,9.98
2023-05-08T06:53:12.714Z,10.02
2023-05-08T06:55:43.743Z,10.12
2023-05-08T06:58:11.527Z,10.18
2023-05-08T07:00:39.382Z,10.30
2023-05-08T07:03:07.467Z,10.39
2023-05-08T07:05:35.580Z,10.46
2023-05-08T07:08:03.429Z,10.57
2023-05-08T07:10:31.243Z,10.73
2023-05-08T07:12:59.072Z,10.81
2023-05-08T07:15:27.273Z,10.95
2023-05-08T07:17:55.252Z,10.99
2023-05-08T07:20:24.778Z,11.04
2023-05-08T07:22:54.723Z,11.13
2023-05-08T07:25:23.337Z,11.29
2023-05-08T07:27:51.076Z,11.40
2023-05-08T07:30:19.005Z,11.50
2023-05-08T07:32:46.941Z,11.66
2023-05-08T07:35:15.894Z,11.82
2023-05-08T07:37:44.614Z,11.91
2023-05-08T07:40:12.477Z,12.00
2023-05-08T07:42:42.101Z,12.14
2023-05-08T07:45:12.393Z,12.20
2023-05-08T07:47:49.534Z,12.29
2023-05-08T07:50:17.718Z,12.44
2023-05-08T07:52:46.551Z,12.58
2023-05-08T07:55:15.862Z,12.52
2023-05-08T07:57:44.395Z,12.62
2023-05-08T08:00:15.065Z,12.81
2023-05-08T08:02:44.303Z,12.81
2023-05-08T08:05:12.957Z,12.79
2023-05-08T08:07:41.056Z,12.79
2023-05-08T08:10:09.236Z,12.84
2023-05-08T08:12:37.432Z,13.09
2023-05-08T08:15:05.999Z,13.30
2023-05-08T08:17:33.911Z,13.39
2023-05-08T08:20:01.794Z,13.40
2023-05-08T08:22:29.610Z,13.39
2023-05-08T08:24:57.472Z,13.35
2023-05-08T08:27:25.258Z,13.32
2023-05-08T08:30:04.487Z,13.10
2023-05-08T08:32:36.328Z,13.10
2023-05-08T08:35:04.583Z,13.34
2023-05-08T08:37:32.476Z,13.37
2023-05-08T08:40:00.522Z,13.29
2023-05-08T08:42:29.103Z,13.70
2023-05-08T08:44:56.994Z,14.00
2023-05-08T08:47:37.045Z,14.36
2023-05-08T08:50:05.703Z,14.54
2023-05-08T08:52:47.551Z,14.63
2023-05-08T08:55:18.053Z,14.62
2023-05-08T08:57:51.361Z,14.89
2023-05-08T09:00:20.502Z,14.82
2023-05-08T09:02:48.829Z,14.65
2023-05-08T09:05:17.924Z,14.54
2023-05-08T09:07:45.944Z,14.88
2023-05-08T09:10:15.802Z,14.88
2023-05-08T09:12:45.133Z,14.96
2023-05-08T09:15:13.192Z,15.49
2023-05-08T09:17:41.345Z,15.88
2023-05-08T09:20:09.683Z,15.90
2023-05-08T09:22:37.923Z,15.62
2023-05-08T09:25:07.168Z,15.86
2023-05-08T09:27:36.413Z,16.46
2023-05-08T09:30:12.342Z,17.17
2023-05-08T09:32:42.817Z,17.76
2023-05-08T09:35:12.540Z,17.92
2023-05-08T09:37:42.995Z,18.39
2023-05-08T09:40:21.999Z,18.91
2023-05-08T09:42:51.019Z,19.05
2023-05-08T09:45:31.590Z,19.16
2023-05-08T09:47:59.825Z,19.17
2023-05-08T09:50:27.852Z,18.89
2023-05-08T09:52:55.940Z,18.88
2023-05-08T09:55:24.449Z,19.12
2023-05-08T09:57:54.747Z,19.36
2023-05-08T10:00:23.655Z,19.33
2023-05-08T10:03:04.136Z,18.96
2023-05-08T10:05:35.569Z,18.95
2023-05-08T10:08:20.032Z,18.74
2023-05-08T10:10:47.961Z,18.36
2023-05-08T10:13:16.127Z,18.06
2023-05-08T10:15:44.965Z,17.99
2023-05-08T10:18:16.309Z,18.58
2023-05-08T10:20:48.787Z,19.29
2023-05-08T10:23:18.759Z,19.32
2023-05-08T10:25:55.912Z,18.81
2023-05-08T10:28:33.486Z,18.50
2023-05-08T10:31:05.341Z,18.16
2023-05-08T10:33:35.868Z,17.94
2023-05-08T10:36:06.017Z,17.82
2023-05-08T10:38:34.785Z,17.62
2023-05-08T10:41:02.853Z,17.47
2023-05-08T10:43:33.854Z,17.40
2023-05-08T10:46:09.773Z,17.21
2023-05-08T10:48:51.822Z,17.71
2023-05-08T10:51:42.014Z,17.59
2023-05-08T10:54:34.388Z,17.61
2023-05-08T10:57:12.558Z,17.54
2023-05-08T10:59:45.270Z,17.20
2023-05-08T11:02:15.819Z,17.41
2023-05-08T11:04:44.059Z,17.66
2023-05-08T11:07:11.857Z,17.63
2023-05-08T11:09:43.076Z,17.46
2023-05-08T11:12:23.010Z,17.48
2023-05-08T11:15:00.360Z,17.48
2023-05-08T11:17:28.719Z,17.30
2023-05-08T11:19:57.593Z,17.22
2023-05-08T11:22:29.409Z,17.02
2023-05-08T11:25:01.263Z,16.74
2023-05-08T11:27:39.461Z,16.55
2023-05-08T11:30:39.493Z,16.66
2023-05-08T11:33:07.235Z,17.07
2023-05-08T11:35:44.324Z,17.37
2023-05-08T11:38:19.225Z,17.41
2023-05-08T11:40:48.587Z,17.09
2023-05-08T11:43:36.593Z,16.88
2023-05-08T11:46:16.600Z,16.69
2023-05-08T11:48:45.069Z,16.67
2023-05-08T11:51:13.808Z,16.99
2023-05-08T11:53:43.675Z,17.26
2023-05-08T11:56:11.533Z,17.66
2023-05-08T11:58:39.300Z,18.03
2023-05-08T12:01:07.621Z,18.06
2023-05-08T12:03:36.397Z,17.62
2023-05-08T12:06:04.370Z,17.34
2023-05-08T12:08:32.103Z,17.19
2023-05-08T12:11:00.153Z,17.03
2023-05-08T12:13:29.505Z,17.05
2023-05-08T12:15:59.749Z,17.33
2023-05-08T12:18:30.690Z,17.56
2023-05-08T12:21:00.631Z,17.84
2023-05-08T12:23:29.776Z,17.98
2023-05-08T12:26:01.725Z,18.10
2023-05-08T12:28:32.185Z,17.98
2023-05-08T12:31:02.082Z,17.71
2023-05-08T12:33:31.214Z,17.34
2023-05-08T12:35:59.213Z,17.09
2023-05-08T12:38:27.881Z,16.83
2023-05-08T12:40:56.157Z,16.80
2023-05-08T12:43:36.585Z,16.75
2023-05-08T12:46:05.028Z,16.76
2023-05-08T12:48:32.911Z,16.76
2023-05-08T12:51:05.149Z,16.77
2023-05-08T12:53:33.586Z,17.06
2023-05-08T12:56:04.255Z,17.44
2023-05-08T12:58:34.350Z,17.71
2023-05-08T13:01:12.810Z,17.67
2023-05-08T13:03:41.563Z,17.40
2023-05-08T13:06:20.996Z,17.10
2023-05-08T13:08:57.263Z,17.08
2023-05-08T13:11:33.087Z,17.24
2023-05-08T13:14:01.037Z,17.27
2023-05-08T13:16:28.951Z,17.35
2023-05-08T13:18:56.691Z,17.50
2023-05-08T13:21:27.070Z,17.49
2023-05-08T13:23:56.657Z,17.52
2023-05-08T13:26:25.699Z,17.51
2023-05-08T13:28:56.165Z,17.59
2023-05-08T13:31:24.389Z,17.56
2023-05-08T13:33:52.142Z,17.65
2023-05-08T13:36:20.959Z,17.71
2023-05-08T13:38:48.923Z,17.73
2023-05-08T13:41:16.719Z,17.75
2023-05-08T13:43:45.476Z,17.78
2023-05-08T13:46:13.508Z,17.91
2023-05-08T13:48:41.261Z,17.96
2023-05-08T13:51:08.922Z,18.07
2023-05-08T13:53:37.971Z,18.12
2023-05-08T13:56:06.465Z,18.19
2023-05-08T13:58:34.230Z,18.27
2023-05-08T14:01:13.888Z,18.23
2023-05-08T14:03:49.538Z,18.00
2023-05-08T14:06:17.215Z,17.69
2023-05-08T14:08:47.265Z,17.23
2023-05-08T14:11:17.343Z,16.78
2023-05-08T14:13:45.081Z,16.51
2023-05-08T14:16:14.441Z,16.32
2023-05-08T14:18:42.277Z,15.99
2023-05-08T14:21:09.921Z,15.73
2023-05-08T14:23:39.208Z,15.56
2023-05-08T14:26:06.928Z,15.61
2023-05-08T14:28:34.600Z,15.63
2023-05-08T14:31:02.493Z,15.80
2023-05-08T14:33:30.249Z,15.89
2023-05-08T14:35:58.020Z,15.89
2023-05-08T14:38:25.673Z,15.87
2023-05-08T14:40:56.327Z,15.95
2023-05-08T14:43:24.356Z,16.02
2023-05-08T14:45:52.049Z,16.12
2023-05-08T14:48:19.715Z,16.15
2023-05-08T14:50:47.453Z,16.14
2023-05-08T14:53:15.346Z,16.18
2023-05-08T14:55:43.655Z,16.17
2023-05-08T14:58:11.735Z,16.10
2023-05-08T15:00:39.708Z,15.86
2023-05-08T15:03:07.588Z,15.72
2023-05-08T15:05:36.873Z,15.68
2023-05-08T15:08:05.661Z,15.83
2023-05-08T15:10:33.316Z,15.94
2023-05-08T15:13:01.245Z,16.03
2023-05-08T15:15:28.917Z,16.13
2023-05-08T15:17:56.681Z,16.22
2023-05-08T15:20:24.538Z,16.31
2023-05-08T15:22:52.311Z,16.42
2023-05-08T15:25:20.233Z,16.51
2023-05-08T15:27:52.618Z,16.55
2023-05-08T15:30:21.102Z,16.56
2023-05-08T15:32:48.941Z,16.48
2023-05-08T15:35:17.035Z,16.36
2023-05-08T15:37:44.688Z,16.25
2023-05-08T15:40:12.948Z,16.20
2023-05-08T15:42:40.692Z,16.13
2023-05-08T15:45:10.279Z,16.00
2023-05-08T15:47:38.029Z,15.78
2023-05-08T15:50:06.384Z,15.60
2023-05-08T15:52:34.165Z,15.44
2023-05-08T15:55:01.909Z,15.38
2023-05-08T15:57:29.600Z,15.38
2023-05-08T15:59:57.599Z,15.33
2023-05-08T16:02:25.595Z,15.25
2023-05-08T16:04:53.336Z,15.16
2023-05-08T16:07:21.077Z,15.10
2023-05-08T16:09:48.723Z,15.07
2023-05-08T16:12:17.271Z,15.04
2023-05-08T16:14:45.253Z,15.03
2023-05-08T16:17:13.145Z,14.98
2023-05-08T16:19:40.896Z,14.93
2023-05-08T16:22:08.556Z,14.86
2023-05-08T16:24:36.179Z,14.81
2023-05-08T16:27:04.009Z,14.71
2023-05-08T16:29:31.657Z,14.62
2023-05-08T16:31:59.475Z,14.56
2023-05-08T16:34:27.360Z,14.53
2023-05-08T16:36:55.161Z,14.47
2023-05-08T16:39:23.070Z,14.41
2023-05-08T16:41:50.751Z,14.37
2023-05-08T16:44:18.483Z,14.36
2023-05-08T16:46:46.203Z,14.31
2023-05-08T16:49:14.188Z,14.24
2023-05-08T16:51:42.609Z,14.21
2023-05-08T16:54:10.303Z,14.16
2023-05-08T16:56:37.930Z,14.13
2023-05-08T16:59:08.556Z,14.08
2023-05-08T17:01:37.397Z,14.03
2023-05-08T17:04:05.368Z,13.93
2023-05-08T17:06:33.057Z,13.88
2023-05-08T17:09:00.857Z,13.83
2023-05-08T17:11:28.666Z,13.75
2023-05-08T17:13:56.366Z,13.67
2023-05-08T17:16:24.108Z,13.61
2023-05-08T17:18:51.805Z,13.57
2023-05-08T17:21:20.710Z,13.51
2023-05-08T17:23:49.181Z,13.43
2023-05-08T17:26:16.896Z,13.35
2023-05-08T17:28:44.659Z,13.28
2023-05-08T17:31:13.212Z,13.21
2023-05-08T17:33:40.909Z,13.13
2023-05-08T17:36:09.156Z,13.05
2023-05-08T17:38:43.276Z,12.99
2023-05-08T17:41:11.917Z,12.93
2023-05-08T17:43:40.029Z,12.84
2023-05-08T17:46:08.191Z,12.75
2023-05-08T17:48:36.254Z,12.67
2023-05-08T17:51:04.402Z,12.58
2023-05-08T17:53:32.778Z,12.52
2023-05-08T17:56:00.600Z,12.43
2023-05-08T17:58:28.601Z,12.34
2023-05-08T18:00:57.139Z,12.26
2023-05-08T18:03:25.008Z,12.16
2023-05-08T18:05:52.922Z,12.02
2023-05-08T18:08:20.768Z,11.90
2023-05-08T18:10:48.637Z,11.78
2023-05-08T18:13:16.342Z,11.65
2023-05-08T18:15:44.449Z,11.49
2023-05-08T18:18:12.165Z,11.32
2023-05-08T18:20:40.069Z,11.19
2023-05-08T18:23:08.639Z,11.04
2023-05-08T18:25:37.087Z,10.88
2023-05-08T18:28:05.025Z,10.75
2023-05-08T18:30:36.292Z,10.62
2023-05-08T18:33:04.289Z,10.46
2023-05-08T18:35:32.045Z,10.26
2023-05-08T18:37:59.735Z,10.09
2023-05-08T18:40:27.588Z,9.95
2023-05-08T18:42:56.025Z,9.82
2023-05-08T18:45:24.907Z,9.70
2023-05-08T18:47:54.228Z,9.56
2023-05-08T18:50:22.146Z,9.43
2023-05-08T18:52:51.084Z,9.28
2023-05-08T18:55:20.135Z,9.14
2023-05-08T18:57:47.883Z,9.01
2023-05-08T19:00:16.563Z,8.90
2023-05-08T19:02:46.756Z,8.79
2023-05-08T19:05:14.484Z,8.65
2023-05-08T19:07:42.759Z,8.53
2023-05-08T19:10:11.480Z,8.40
2023-05-08T19:12:39.727Z,8.28
2023-05-08T19:15:09.418Z,8.18
2023-05-08T19:17:37.984Z,8.07
2023-05-08T19:20:06.441Z,7.96
2023-05-08T19:22:35.845Z,7.84
2023-05-08T19:25:04.533Z,7.74
2023-05-08T19:27:32.275Z,7.67
2023-05-08T19:30:00.131Z,7.55
2023-05-08T19:32:28.741Z,7.48
2023-05-08T19:34:57.480Z,7.35
2023-05-08T19:37:25.334Z,7.25
2023-05-08T19:39:53.202Z,7.17
2023-05-08T19:42:21.482Z,7.07
2023-05-08T19:44:49.478Z,6.99
2023-05-08T19:47:17.467Z,6.90
2023-05-08T19:49:45.277Z,6.82
2023-05-08T19:52:12.998Z,6.75
2023-05-08T19:54:40.834Z,6.66
2023-05-08T19:57:08.603Z,6.58
2023-05-08T19:59:36.799Z,6.50
2023-05-08T20:02:04.547Z,6.41
2023-05-08T20:04:36.969Z,6.34
2023-05-08T20:07:16.068Z,6.26
2023-05-08T20:09:46.204Z,6.20
2023-05-08T20:12:14.101Z,6.13
2023-05-08T20:14:42.415Z,6.03
2023-05-08T20:17:10.322Z,5.96
2023-05-08T20:19:38.203Z,5.89
2023-05-08T20:22:06.237Z,5.83
2023-05-08T20:24:33.989Z,5.77
2023-05-08T20:27:02.579Z,5.70
2023-05-08T20:29:30.277Z,5.65
2023-05-08T20:31:58.133Z,5.59
2023-05-08T20:34:25.804Z,5.54
2023-05-08T20:36:53.600Z,5.50
2023-05-08T20:39:21.495Z,5.44
2023-05-08T20:41:49.156Z,5.39
2023-05-08T20:44:19.125Z,5.33
2023-05-08T20:46:46.794Z,5.27
2023-05-08T20:49:14.598Z,5.21
2023-05-08T20:51:42.275Z,5.18
2023-05-08T20:54:10.163Z,5.12
2023-05-08T20:56:37.861Z,5.07
2023-05-08T20:59:05.644Z,5.00
2023-05-08T21:01:33.434Z,4.96
2023-05-08T21:04:01.368Z,4.90
2023-05-08T21:06:29.629Z,4.86
2023-05-08T21:08:57.809Z,4.81
2023-05-08T21:11:25.893Z,4.75
2023-05-08T21:13:53.599Z,4.71
2023-05-08T21:16:22.192Z,4.66
2023-05-08T21:18:51.076Z,4.61
2023-05-08T21:21:22.893Z,4.56
2023-05-08T21:23:50.930Z,4.51
2023-05-08T21:26:20.009Z,4.47
2023-05-08T21:28:47.904Z,4.42
2023-05-08T21:31:15.614Z,4.39
2023-05-08T21:33:43.317Z,4.33
2023-05-08T21:36:10.938Z,4.29
2023-05-08T21:38:38.954Z,4.25
2023-05-08T21:41:08.333Z,4.20
2023-05-08T21:43:36.365Z,4.17
2023-05-08T21:46:05.769Z,4.13
2023-05-08T21:48:34.128Z,4.09
2023-05-08T21:51:02.403Z,4.05
2023-05-08T21:53:30.219Z,3.99
2023-05-08T21:55:59.184Z,3.96
2023-05-08T21:58:26.918Z,3.92
2023-05-08T22:00:55.493Z,3.88
2023-05-08T22:03:24.647Z,3.83
2023-05-08T22:05:52.499Z,3.79
2023-05-08T22:08:20.198Z,3.74
2023-05-08T22:10:47.970Z,3.70
2023-05-08T22:13:15.702Z,3.64
2023-05-08T22:15:43.442Z,3.59
2023-05-08T22:18:11.327Z,3.56
2023-05-08T22:20:39.089Z,3.50
2023-05-08T22:23:06.799Z,3.41
2023-05-08T22:25:34.590Z,3.38
2023-05-08T22:28:02.285Z,3.36
2023-05-08T22:30:30.038Z,3.33
2023-05-08T22:32:58.151Z,3.30
2023-05-08T22:35:27.733Z,3.25
2023-05-08T22:37:57.268Z,3.22
2023-05-08T22:40:25.726Z,3.17
2023-05-08T22:42:55.806Z,3.15
2023-05-08T22:45:23.718Z,3.11
2023-05-08T22:47:51.563Z,3.08
2023-05-08T22:50:19.482Z,3.05
2023-05-08T22:52:47.220Z,3.01
2023-05-08T22:55:15.868Z,2.96
2023-05-08T22:57:44.292Z,2.92
2023-05-08T23:00:12.567Z,2.87
2023-05-08T23:02:40.247Z,2.82
2023-05-08T23:05:08.497Z,2.80
2023-05-08T23:07:36.188Z,2.75
2023-05-08T23:10:03.993Z,2.73
2023-05-08T23:12:31.967Z,2.70
2023-05-08T23:14:59.611Z,2.66
2023-05-08T23:17:27.389Z,2.64
2023-05-08T23:19:55.094Z,2.62
2023-05-08T23:22:22.745Z,2.59
2023-05-08T23:24:50.488Z,2.56
2023-05-08T23:27:18.119Z,2.53
2023-05-08T23:29:45.895Z,2.48
2023-05-08T23:32:14.618Z,2.45
2023-05-08T23:34:43.139Z,2.44
2023-05-08T23:37:10.867Z,2.41
2023-05-08T23:39:41.510Z,2.37
2023-05-08T23:42:09.384Z,2.35
2023-05-08T23:44:37.312Z,2.34
2023-05-08T23:47:05.116Z,2.31
2023-05-08T23:49:32.907Z,2.29
2023-05-08T23:52:01.293Z,2.26
2023-05-08T23:54:28.950Z,2.23
2023-05-08T23:56:56.668Z,2.19
2023-05-08T23:59:24.397Z,2.17
